Startpagina
METAR-TAF:

METAR-TAF

Vliegvelden :

Victoria, Mahé, Seychellen

Luchthaven Seychellen

breedte: 04-40S, lengte: 055-31E, hoogte: 3 m

Actueel weer

Dit bericht is 1 uur en het 12 minuten geleden gemaakt, om 23:00 UTC
Wind 12 kt uit het zuidzuidoosten
Temperatuur 27°C
Vochtigheid 84%
Druk 1013 hPa
Zicht 10 km of meer
Weinig wolken op 900 ft
Verspreide wolken op 1500 ft

METAR: FSIA 192300Z 15012KT 9999 FEW009 SCT015 27/24 Q1013 NOSIG

Tijdstip: 04:12 (00:12 UTC)

Verwachting

Dit bericht is 1 uur en het 11 minuten geleden gemaakt, om 23:01 UTC
Verwachting geldig van 20 om 00 UTC tot 20 om 24 UTC
Wind 15 kt uit het oostzuidoosten
Zicht 10 km of meer
Verspreide wolken op 1700 ft
Kans 40% :
Tijdelijke
van 20 om 00 UTC tot 20 om 02 UTC
Gebroken wolken op 1500 ft
lichte regenbuien

TAF: FSIA 192301Z 2000/2024 12015KT 9999 SCT017 PROB40 TEMPO 2000/2002 -SHRA BKN015

Waarnemingen en weersverwachtingen van meer dan 4000 vliegvelden (METAR en TAF).

De beschikbare stations zijn de gele en rode punten op de kaart.

Ga met uw muis naar het station om de naam te zien.

Klik dan om waarnemingen en weersverwachtingen te zien.

kaart wijzigen: klik op de groene knoppen met een zwart kruis om in te zoomen, op de groene knop met een streepje om uit te zoomen of op de groene pijlen voor aangrenzende kaarten.


METAR-TAF: